^^
Meteo Knjazevac Station Historical Data
Daily Summary for January 22, 2022 Units:  Metric    English   Both
Daily Weekly Monthly Yearly Custom
  High: Low: Average:
Temperature: -2.3 °C -4.2 °C -3.1 °C
Dew Point: -6.1 °C -7.1 °C -6.6 °C
Humidity: 81% 74% 77%
Wind Speed: 9.7km/h 0km/h 3.5km/h
Wind Gust: 19.3km/h - -
Wind- - WSW
Pressure: 1023.6 hPa 1022.2 hPa -
Precipitation: 0 mm    
Historical Graphs
 
 
Tabular Data for January 22, 2022
Time Temperature Dew Point Pressure Wind Wind Speed Wind Gust Humidity Rainfall Rate (Hourly) solar Conditions
00:00 -2.3 °C -6.1 °C 1023.6 hPa NW 1.6 km/h 11.3 km/h 75% 0 mm 0 W/m2
00:10 -2.3 °C -6.1 °C 1023.2 hPa NNW 3.2 km/h 19.3 km/h 75% 0 mm 0 W/m2
00:20 -2.3 °C -6.3 °C 1023.2 hPa West 3.2 km/h 8 km/h 74% 0 mm 0 W/m2
00:30 -2.4 °C -6.2 °C 1023.2 hPa WSW 4.8 km/h 9.7 km/h 75% 0 mm 0 W/m2
00:40 -2.4 °C -6.2 °C 1023.2 hPa SSW 3.2 km/h 8 km/h 75% 0 mm 0 W/m2
00:50 -2.5 °C -6.3 °C 1023.2 hPa WSW 3.2 km/h 9.7 km/h 75% 0 mm 0 W/m2
01:10 -2.3 °C -6.1 °C 1023.2 hPa WSW 9.7 km/h 14.5 km/h 75% 0 mm 0 W/m2
01:20 -2.3 °C -6.1 °C 1023.2 hPa West 3.2 km/h 14.5 km/h 75% 0 mm 0 W/m2
01:30 -2.4 °C -6.2 °C 1023.2 hPa NW 1.6 km/h 6.4 km/h 75% 0 mm 0 W/m2
01:40 -2.5 °C -6.3 °C 1022.9 hPa West 1.6 km/h 4.8 km/h 75% 0 mm 0 W/m2
01:50 -2.7 °C -6.2 °C 1023.2 hPa Calm   6.4 km/h 77% 0 mm 0 W/m2
02:00 -3.1 °C -6.6 °C 1023.2 hPa Calm   4.8 km/h 77% 0 mm 0 W/m2
02:10 -3.3 °C -6.6 °C 1023.2 hPa South 3.2 km/h 9.7 km/h 78% 0 mm 0 W/m2
02:20 -3.6 °C -6.9 °C 1022.9 hPa SW 4.8 km/h 11.3 km/h 78% 0 mm 0 W/m2
02:30 -3.7 °C -6.8 °C 1022.9 hPa WSW 4.8 km/h 9.7 km/h 79% 0 mm 0 W/m2
02:40 -3.8 °C -6.9 °C 1022.6 hPa South 3.2 km/h 6.4 km/h 79% 0 mm 0 W/m2
02:50 -3.9 °C -7 °C 1022.2 hPa ENE 1.6 km/h 8 km/h 79% 0 mm 0 W/m2
03:00 -4 °C -7.1 °C 1022.6 hPa WNW 3.2 km/h 9.7 km/h 79% 0 mm 0 W/m2
03:10 -4.1 °C -7.1 °C 1022.6 hPa NW 1.6 km/h 3.2 km/h 80% 0 mm 0 W/m2
03:20 -4.2 °C -7.1 °C 1022.6 hPa North 3.2 km/h 4.8 km/h 80% 0 mm 0 W/m2
03:30 -4.2 °C -7 °C 1022.6 hPa West 8 km/h 12.9 km/h 81% 0 mm 0 W/m2
03:40 -4.2 °C -7 °C 1022.2 hPa West 9.7 km/h 14.5 km/h 81% 0 mm 0 W/m2
Knjazevac, Serbia
Compliments of Weather Underground - 2 mb